Time;durP1;ratioP1;P1;durP2;ratioP2;P2;SDS_P1;SDS_P2;PMS_P1;PMS_P2;Temp;Humidity;BMP_temperature;BMP_pressure;BME280_temperature;BME280_humidity;BME280_pressure;Samples;Min_cycle;Max_cycle;Signal;HPM_P1;HPM_P2
2023/09/19 00:00:43;;;;;;;1.17;0.87;;;15.10;99.90;;;;;;6207276;23;20205;-87
2023/09/19 00:03:11;;;;;;;2.57;1.13;;;15.10;99.90;;;;;;6184508;23;20197;-86
2023/09/19 00:05:38;;;;;;;0.50;0.47;;;15.10;99.90;;;;;;6163958;23;20289;-87
2023/09/19 00:08:04;;;;;;;2.43;1.10;;;15.10;99.90;;;;;;6188131;23;20178;-86
2023/09/19 00:10:31;;;;;;;2.23;0.67;;;15.10;99.90;;;;;;6188749;23;20233;-87
2023/09/19 00:12:59;;;;;;;1.23;0.97;;;15.10;99.90;;;;;;6188447;23;20201;-88
2023/09/19 00:15:28;;;;;;;2.37;0.87;;;15.30;99.90;;;;;;6189533;23;20719;-88
2023/09/19 00:17:55;;;;;;;0.57;0.40;;;15.40;99.90;;;;;;6187040;23;20686;-87
2023/09/19 00:20:23;;;;;;;4.67;1.17;;;15.40;99.90;;;;;;6209582;23;21074;-87
2023/09/19 00:22:53;;;;;;;0.27;0.27;;;15.40;99.90;;;;;;6189077;23;20626;-88
2023/09/19 00:25:20;;;;;;;0.90;0.87;;;15.40;99.90;;;;;;6214485;23;20554;-87
2023/09/19 00:27:47;;;;;;;4.83;1.13;;;15.40;99.90;;;;;;6214557;23;20210;-87
2023/09/19 00:30:19;;;;;;;3.97;0.80;;;15.50;99.90;;;;;;6190110;23;20281;-86
2023/09/19 00:32:49;;;;;;;1.03;0.73;;;15.40;99.90;;;;;;6190730;23;20205;-88
2023/09/19 00:35:15;;;;;;;1.73;0.90;;;15.50;99.90;;;;;;6214655;23;20197;-87
2023/09/19 00:37:41;;;;;;;0.63;0.60;;;15.40;99.90;;;;;;6188543;23;20508;-87
2023/09/19 00:40:17;;;;;;;1.00;0.57;;;15.40;99.90;;;;;;6185108;23;20305;-86
2023/09/19 00:42:47;;;;;;;0.57;0.50;;;15.30;99.90;;;;;;6164987;23;20538;-86
2023/09/19 00:45:14;;;;;;;3.53;1.07;;;15.20;99.90;;;;;;6214038;23;20305;-86
2023/09/19 00:47:51;;;;;;;0.80;0.60;;;15.20;99.90;;;;;;6213978;23;20218;-87
2023/09/19 00:50:19;;;;;;;2.73;1.40;;;15.10;99.90;;;;;;6214517;23;20186;-87
2023/09/19 00:52:47;;;;;;;0.67;0.43;;;15.10;99.90;;;;;;6190589;23;20272;-87
2023/09/19 00:55:15;;;;;;;1.63;0.43;;;15.10;99.90;;;;;;6214246;23;20532;-86
2023/09/19 00:57:42;;;;;;;0.70;0.70;;;15.10;99.90;;;;;;6212035;23;20202;-87
2023/09/19 01:00:15;;;;;;;3.60;1.27;;;15.10;99.90;;;;;;6159405;23;20695;-86
2023/09/19 01:02:45;;;;;;;2.80;0.83;;;15.10;99.90;;;;;;6209672;23;20200;-87
2023/09/19 01:05:12;;;;;;;0.47;0.47;;;15.10;99.90;;;;;;6188933;23;20174;-87
2023/09/19 01:07:41;;;;;;;1.40;0.90;;;15.10;99.90;;;;;;6165137;23;20596;-86
2023/09/19 01:10:10;;;;;;;6.47;0.63;;;15.10;99.90;;;;;;6165056;23;20679;-86
2023/09/19 01:12:55;;;;;;;1.77;0.90;;;15.20;99.90;;;;;;6209185;23;20201;-87
2023/09/19 01:15:36;;;;;;;0.50;0.50;;;15.20;99.90;;;;;;6209107;23;20206;-87
2023/09/19 01:18:36;;;;;;;0.60;0.60;;;15.20;99.90;;;;;;6215484;23;20675;-86
2023/09/19 01:21:28;;;;;;;2.37;0.83;;;15.20;99.90;;;;;;6213764;23;20198;-88
2023/09/19 01:24:35;;;;;;;4.47;1.63;;;15.20;99.90;;;;;;6213064;23;20265;-86
2023/09/19 01:27:33;;;;;;;1.97;0.77;;;15.10;99.90;;;;;;6239256;23;20252;-86
2023/09/19 01:30:13;;;;;;;2.30;1.07;;;15.10;99.90;;;;;;6238897;23;20206;-86
2023/09/19 01:32:41;;;;;;;4.37;0.83;;;15.00;99.90;;;;;;6213485;23;20638;-87
2023/09/19 01:35:11;;;;;;;0.43;0.43;;;15.00;99.90;;;;;;6213668;23;20154;-85
2023/09/19 01:37:37;;;;;;;2.13;0.90;;;15.00;99.90;;;;;;6209875;23;20135;-88
2023/09/19 01:40:16;;;;;;;0.30;0.30;;;15.10;99.90;;;;;;6159623;23;20216;-87
2023/09/19 01:43:20;;;;;;;5.23;1.33;;;15.10;99.90;;;;;;6214272;23;20218;-86
2023/09/19 01:45:46;;;;;;;0.83;0.50;;;15.10;99.90;;;;;;6213304;23;20189;-85
2023/09/19 01:48:50;;;;;;;3.77;0.80;;;15.10;99.90;;;;;;6238087;23;20256;-85
2023/09/19 01:51:31;;;;;;;2.37;0.60;;;15.10;99.90;;;;;;6238657;23;20340;-86
2023/09/19 01:54:41;;;;;;;2.30;2.10;;;15.10;99.90;;;;;;6238332;23;20202;-86
2023/09/19 01:57:15;;;;;;;10.27;1.57;;;15.10;99.90;;;;;;6215008;23;20197;-85
2023/09/19 01:59:48;;;;;;;1.97;0.67;;;15.10;99.90;;;;;;6209249;23;20193;-89
2023/09/19 02:02:17;;;;;;;3.13;0.70;;;15.00;99.90;;;;;;6210595;23;20239;-85
2023/09/19 02:04:43;;;;;;;2.97;0.87;;;15.00;99.90;;;;;;6189385;23;20155;-86
2023/09/19 02:07:09;;;;;;;1.00;0.67;;;15.00;99.90;;;;;;6187928;23;20196;-87
2023/09/19 02:09:38;;;;;;;1.90;0.50;;;15.00;99.90;;;;;;6163382;23;20206;-86
2023/09/19 02:12:05;;;;;;;0.33;0.30;;;15.00;99.90;;;;;;6164888;23;20906;-86
2023/09/19 02:14:31;;;;;;;1.17;0.70;;;15.00;99.90;;;;;;6162831;23;20201;-85
2023/09/19 02:16:57;;;;;;;1.77;0.90;;;15.00;99.90;;;;;;6188735;23;20166;-86
2023/09/19 02:19:23;;;;;;;1.13;0.83;;;15.10;99.90;;;;;;6163856;23;20465;-87
2023/09/19 02:21:49;;;;;;;2.13;0.70;;;15.10;99.90;;;;;;6187703;23;20201;-85
2023/09/19 02:24:15;;;;;;;1.80;0.70;;;15.00;99.90;;;;;;6162896;23;20198;-85
2023/09/19 02:26:41;;;;;;;1.60;0.77;;;15.00;99.90;;;;;;6212377;23;20247;-86
2023/09/19 02:29:07;;;;;;;0.40;0.40;;;15.10;99.90;;;;;;6187925;23;20190;-86
2023/09/19 02:31:33;;;;;;;2.00;0.80;;;15.00;99.90;;;;;;6188719;23;20180;-85
2023/09/19 02:34:00;;;;;;;0.20;0.20;;;15.10;99.90;;;;;;6163310;23;20590;-85
2023/09/19 02:36:26;;;;;;;0.67;0.40;;;15.10;99.90;;;;;;6187588;23;20280;-86
2023/09/19 02:38:52;;;;;;;4.57;0.57;;;15.10;99.90;;;;;;6162854;23;20243;-87
2023/09/19 02:41:17;;;;;;;0.60;0.60;;;15.10;99.90;;;;;;6187650;23;20296;-85
2023/09/19 02:43:43;;;;;;;3.07;1.40;;;15.10;99.90;;;;;;6188220;23;20760;-86
2023/09/19 02:46:11;;;;;;;2.17;1.07;;;15.10;99.90;;;;;;6187735;23;20194;-86
2023/09/19 02:48:37;;;;;;;2.10;0.73;;;15.10;99.90;;;;;;6187596;23;20206;-86
2023/09/19 02:51:03;;;;;;;2.80;0.53;;;15.00;99.90;;;;;;6187458;23;20248;-84
2023/09/19 02:53:30;;;;;;;0.70;0.50;;;15.10;99.90;;;;;;6162941;23;20501;-86
2023/09/19 02:55:56;;;;;;;4.13;1.27;;;15.10;99.90;;;;;;6163738;23;20801;-86
2023/09/19 02:58:23;;;;;;;1.23;0.60;;;15.10;99.90;;;;;;6160439;23;20169;-86
2023/09/19 03:00:49;;;;;;;0.90;0.50;;;15.10;99.90;;;;;;6158764;23;20206;-86
2023/09/19 03:03:16;;;;;;;1.63;0.63;;;15.10;99.90;;;;;;6185428;23;20201;-86
2023/09/19 03:05:46;;;;;;;2.40;0.50;;;15.10;99.90;;;;;;6162897;23;20190;-86
2023/09/19 03:08:14;;;;;;;2.50;0.33;;;15.00;99.90;;;;;;6164760;23;20177;-86
2023/09/19 03:10:40;;;;;;;2.90;0.87;;;15.00;99.90;;;;;;6188777;23;20166;-85
2023/09/19 03:13:09;;;;;;;3.20;0.63;;;15.00;99.90;;;;;;6212246;23;20657;-86
2023/09/19 03:15:38;;;;;;;2.10;0.90;;;15.00;99.90;;;;;;6163397;23;20931;-85
2023/09/19 03:18:05;;;;;;;7.17;1.23;;;15.10;99.90;;;;;;6187617;23;20248;-85
2023/09/19 03:20:31;;;;;;;0.40;0.40;;;15.10;99.90;;;;;;6187712;23;20626;-87
2023/09/19 03:22:57;;;;;;;2.00;0.90;;;15.10;99.90;;;;;;6187168;23;20176;-86
2023/09/19 03:25:23;;;;;;;5.07;0.97;;;15.10;99.90;;;;;;6188099;23;20162;-85
2023/09/19 03:27:48;;;;;;;4.13;0.50;;;15.00;99.90;;;;;;6187018;23;20233;-86
2023/09/19 03:30:14;;;;;;;1.13;0.37;;;15.00;99.90;;;;;;6187562;23;20201;-84
2023/09/19 03:32:46;;;;;;;0.67;0.50;;;15.00;99.90;;;;;;6187289;23;20194;-86
2023/09/19 03:35:13;;;;;;;0.60;0.50;;;15.00;99.90;;;;;;6162861;23;20250;-86
2023/09/19 03:37:41;;;;;;;6.13;0.57;;;15.00;99.90;;;;;;6188417;23;20161;-85
2023/09/19 03:40:08;;;;;;;0.83;0.60;;;15.00;99.90;;;;;;6187121;23;20196;-86
2023/09/19 03:42:36;;;;;;;0.50;0.40;;;15.00;99.90;;;;;;6187326;23;20662;-85
2023/09/19 03:45:05;;;;;;;5.73;1.40;;;14.90;99.90;;;;;;6163401;23;20241;-85
2023/09/19 03:47:31;;;;;;;1.03;0.90;;;14.90;99.90;;;;;;6186728;23;20208;-85
2023/09/19 03:49:57;;;;;;;0.80;0.80;;;15.00;99.90;;;;;;6162434;23;20166;-86
2023/09/19 03:52:22;;;;;;;0.43;0.43;;;15.00;99.90;;;;;;6188147;23;20158;-86
2023/09/19 03:54:48;;;;;;;4.70;0.73;;;15.00;99.90;;;;;;6211909;23;20670;-86
2023/09/19 03:57:17;;;;;;;0.57;0.57;;;15.00;99.90;;;;;;6186266;23;20205;-84
2023/09/19 03:59:42;;;;;;;7.20;0.60;;;15.00;99.90;;;;;;6158742;23;20194;-87
2023/09/19 04:02:21;;;;;;;1.90;1.80;;;15.10;99.90;;;;;;6158516;23;20173;-88
2023/09/19 04:04:53;;;;;;;1.40;0.90;;;15.10;99.90;;;;;;6211992;23;20146;-84
2023/09/19 04:07:22;;;;;;;0.30;0.30;;;15.10;99.90;;;;;;6188248;23;20202;-85
2023/09/19 04:09:48;;;;;;;1.10;0.70;;;15.10;99.90;;;;;;6211548;23;20213;-85
2023/09/19 04:12:16;;;;;;;5.93;1.13;;;15.10;99.90;;;;;;6162546;23;20639;-86
2023/09/19 04:14:42;;;;;;;0.57;0.57;;;15.10;99.90;;;;;;6163043;23;20200;-86
2023/09/19 04:17:10;;;;;;;1.10;0.93;;;15.10;99.90;;;;;;6161968;23;20169;-85
2023/09/19 04:19:35;;;;;;;9.90;0.80;;;15.10;99.90;;;;;;6188022;23;20241;-84
2023/09/19 04:22:01;;;;;;;1.30;0.87;;;15.10;99.90;;;;;;6186973;23;20228;-85
2023/09/19 04:24:27;;;;;;;3.90;0.80;;;15.10;99.90;;;;;;6186808;23;20701;-86
2023/09/19 04:26:53;;;;;;;0.50;0.50;;;15.10;99.90;;;;;;6187422;23;20190;-85
2023/09/19 04:29:20;;;;;;;0.93;0.40;;;15.10;99.90;;;;;;6187117;23;20587;-86
2023/09/19 04:31:45;;;;;;;1.37;0.53;;;15.10;99.90;;;;;;6163432;23;20584;-85
2023/09/19 04:34:17;;;;;;;0.30;0.30;;;15.10;99.90;;;;;;6186772;23;20244;-84
2023/09/19 04:36:43;;;;;;;0.47;0.47;;;15.10;99.90;;;;;;6187811;23;20198;-85
2023/09/19 04:39:10;;;;;;;1.10;0.80;;;15.20;99.90;;;;;;6186933;23;20659;-84
2023/09/19 04:41:41;;;;;;;2.37;0.63;;;15.20;99.90;;;;;;6162942;23;20662;-86
2023/09/19 04:44:07;;;;;;;1.70;0.67;;;15.30;99.90;;;;;;6160871;23;20158;-84
2023/09/19 04:46:34;;;;;;;0.77;0.53;;;15.30;99.90;;;;;;6182973;23;20154;-85
2023/09/19 04:49:00;;;;;;;2.30;1.23;;;15.30;99.90;;;;;;6157652;23;20765;-85
2023/09/19 04:51:29;;;;;;;0.53;0.53;;;15.30;99.90;;;;;;6162282;23;20201;-86
2023/09/19 04:53:55;;;;;;;9.30;1.90;;;15.30;99.90;;;;;;6211730;23;20197;-85
2023/09/19 04:56:21;;;;;;;0.80;0.70;;;15.30;99.90;;;;;;6162038;23;20197;-85
2023/09/19 04:58:46;;;;;;;1.50;0.67;;;15.30;99.90;;;;;;6184969;23;20216;-88
2023/09/19 05:01:14;;;;;;;3.17;0.70;;;15.30;99.90;;;;;;6159554;23;20263;-85
2023/09/19 05:03:41;;;;;;;0.97;0.97;;;15.30;99.90;;;;;;6188724;23;20252;-85
2023/09/19 05:06:06;;;;;;;0.53;0.53;;;15.40;99.90;;;;;;6188894;23;20531;-85
2023/09/19 05:08:32;;;;;;;7.63;1.40;;;15.50;99.90;;;;;;6163674;23;20265;-85
2023/09/19 05:10:58;;;;;;;4.13;1.23;;;15.50;99.90;;;;;;6164053;23;20166;-88
2023/09/19 05:13:24;;;;;;;0.43;0.33;;;15.50;99.90;;;;;;6189347;23;20184;-85
2023/09/19 05:15:52;;;;;;;2.10;0.73;;;15.50;99.90;;;;;;6161607;23;20198;-86
2023/09/19 05:18:18;;;;;;;2.53;0.63;;;15.40;99.90;;;;;;6184171;23;20205;-85
2023/09/19 05:20:44;;;;;;;1.87;0.47;;;15.40;99.90;;;;;;6184719;23;20186;-87
2023/09/19 05:23:12;;;;;;;2.53;0.63;;;15.40;99.90;;;;;;6163745;23;20159;-86
2023/09/19 05:25:40;;;;;;;4.00;0.50;;;15.40;99.90;;;;;;6165213;23;20358;-86
2023/09/19 05:28:12;;;;;;;4.23;0.60;;;15.40;99.90;;;;;;6184130;23;20261;-87
2023/09/19 05:30:42;;;;;;;3.17;1.10;;;15.40;99.90;;;;;;6208411;23;20194;-86
2023/09/19 05:33:09;;;;;;;0.93;0.60;;;15.40;99.90;;;;;;6185092;23;20272;-87
2023/09/19 05:35:37;;;;;;;0.43;0.43;;;15.40;99.90;;;;;;6185650;23;20189;-87
2023/09/19 05:38:05;;;;;;;4.73;0.50;;;15.30;99.90;;;;;;6188814;23;20162;-87
2023/09/19 05:40:31;;;;;;;2.33;0.40;;;15.30;99.90;;;;;;6165987;23;20871;-85
2023/09/19 05:42:57;;;;;;;2.23;0.63;;;15.30;99.90;;;;;;6163261;23;20648;-84
2023/09/19 05:45:23;;;;;;;6.13;1.87;;;15.40;99.90;;;;;;6163277;23;20198;-87
2023/09/19 05:47:50;;;;;;;4.90;1.00;;;15.40;99.90;;;;;;6162889;23;20212;-85
2023/09/19 05:50:18;;;;;;;0.87;0.67;;;15.40;99.90;;;;;;6188480;23;20197;-87
2023/09/19 05:52:52;;;;;;;0.90;0.27;;;15.40;99.90;;;;;;6189384;23;20158;-87
2023/09/19 05:55:18;;;;;;;1.23;0.70;;;15.50;99.90;;;;;;6212634;23;20534;-88
2023/09/19 05:57:52;;;;;;;0.97;0.97;;;15.50;99.90;;;;;;6235959;23;20280;-89
2023/09/19 06:00:22;;;;;;;2.03;1.07;;;15.50;99.90;;;;;;6233570;23;20201;-86
2023/09/19 06:02:52;;;;;;;3.77;1.57;;;15.50;99.90;;;;;;6235040;23;20224;-87
2023/09/19 06:05:19;;;;;;;3.07;0.90;;;15.60;99.90;;;;;;6212720;23;20190;-84
2023/09/19 06:07:45;;;;;;;1.10;0.60;;;15.50;99.90;;;;;;6163525;23;20154;-84
2023/09/19 06:10:11;;;;;;;3.93;1.03;;;15.50;99.90;;;;;;6211749;23;20201;-87
2023/09/19 06:12:44;;;;;;;0.73;0.60;;;15.50;99.90;;;;;;6162971;23;20340;-88
2023/09/19 06:15:15;;;;;;;5.77;1.00;;;15.60;99.90;;;;;;6212751;23;20201;-86
2023/09/19 06:17:57;;;;;;;5.83;1.77;;;15.60;99.90;;;;;;6212893;23;20190;-89
2023/09/19 06:20:25;;;;;;;0.40;0.40;;;15.60;99.90;;;;;;6212850;23;20660;-86
2023/09/19 06:22:52;;;;;;;1.13;0.50;;;15.60;99.90;;;;;;6164118;23;20164;-86
2023/09/19 06:25:21;;;;;;;2.43;1.10;;;15.60;99.90;;;;;;6212029;23;20543;-86
2023/09/19 06:27:51;;;;;;;5.70;0.83;;;15.70;99.90;;;;;;6162573;23;20201;-86
2023/09/19 06:30:18;;;;;;;2.33;0.43;;;15.80;99.90;;;;;;6211962;23;20190;-85
2023/09/19 06:32:44;;;;;;;2.23;1.07;;;15.80;99.90;;;;;;6162471;23;20186;-87
2023/09/19 06:35:11;;;;;;;1.00;0.53;;;15.80;99.90;;;;;;6161895;23;20284;-87
2023/09/19 06:37:40;;;;;;;2.60;0.70;;;15.80;99.90;;;;;;6162916;23;20263;-86
2023/09/19 06:40:14;;;;;;;1.53;1.07;;;15.90;99.90;;;;;;6163666;23;20198;-86
2023/09/19 06:42:45;;;;;;;3.40;1.20;;;15.90;99.90;;;;;;6186909;23;20265;-87
2023/09/19 06:45:13;;;;;;;2.43;0.77;;;15.90;99.90;;;;;;6213314;23;20194;-85
2023/09/19 06:47:39;;;;;;;2.40;0.83;;;16.00;99.90;;;;;;6186889;23;20206;-87
2023/09/19 06:50:09;;;;;;;1.30;0.60;;;16.00;99.90;;;;;;6237301;23;20150;-86
2023/09/19 06:52:35;;;;;;;2.07;0.70;;;16.00;99.90;;;;;;6164760;23;20533;-87
2023/09/19 06:55:03;;;;;;;1.17;1.13;;;16.20;99.90;;;;;;6162730;23;20642;-87
2023/09/19 06:57:30;;;;;;;1.57;0.53;;;16.10;99.90;;;;;;6186522;23;20202;-86
2023/09/19 06:59:56;;;;;;;1.13;0.63;;;16.20;99.90;;;;;;6207133;23;20265;-87
2023/09/19 07:02:22;;;;;;;2.63;0.83;;;16.30;99.90;;;;;;6183855;23;20231;-86
2023/09/19 07:04:49;;;;;;;6.83;0.77;;;16.30;99.90;;;;;;6163491;23;20666;-88
2023/09/19 07:07:16;;;;;;;3.57;0.83;;;16.40;99.90;;;;;;6187600;23;20509;-89
2023/09/19 07:09:42;;;;;;;1.60;0.90;;;16.50;99.90;;;;;;6163361;23;20208;-89
2023/09/19 07:12:08;;;;;;;6.30;1.30;;;16.50;99.90;;;;;;6212610;23;20272;-88
2023/09/19 07:14:34;;;;;;;1.30;0.77;;;16.50;99.90;;;;;;6187460;23;20201;-86
2023/09/19 07:17:03;;;;;;;3.30;0.80;;;16.70;99.90;;;;;;6211937;23;20165;-86
2023/09/19 07:19:31;;;;;;;1.70;0.73;;;16.60;99.90;;;;;;6165218;23;20249;-87
2023/09/19 07:21:59;;;;;;;6.23;1.10;;;16.60;99.90;;;;;;6162747;23;20223;-87
2023/09/19 07:24:27;;;;;;;12.20;1.10;;;16.60;99.90;;;;;;6187450;23;20635;-86
2023/09/19 07:26:53;;;;;;;2.07;0.77;;;16.60;99.90;;;;;;6163136;23;20186;-86
2023/09/19 07:29:18;;;;;;;6.40;1.00;;;16.80;99.90;;;;;;6186400;23;20288;-86
2023/09/19 07:31:44;;;;;;;5.40;0.90;;;17.40;99.90;;;;;;6187746;23;20162;-88
2023/09/19 07:34:10;;;;;;;5.77;0.87;;;18.50;99.90;;;;;;6161912;23;20206;-87
2023/09/19 07:36:37;;;;;;;4.70;1.40;;;19.20;99.90;;;;;;6188208;23;20221;-88
2023/09/19 07:39:06;;;;;;;0.77;0.60;;;19.40;99.90;;;;;;6187914;23;20208;-90
2023/09/19 07:41:33;;;;;;;1.03;0.73;;;19.20;99.90;;;;;;6188660;23;20228;-90
2023/09/19 07:43:58;;;;;;;4.77;1.43;;;19.00;99.90;;;;;;6163035;23;20173;-84
2023/09/19 07:46:25;;;;;;;2.53;0.87;;;18.90;99.90;;;;;;6188259;23;20162;-88
2023/09/19 07:48:52;;;;;;;5.03;1.67;;;19.20;99.90;;;;;;6162592;23;20538;-88
2023/09/19 07:51:17;;;;;;;4.63;1.10;;;19.80;99.90;;;;;;6186874;23;20205;-90
2023/09/19 07:53:43;;;;;;;4.17;1.00;;;20.50;99.90;;;;;;6162745;23;20190;-88
2023/09/19 07:56:10;;;;;;;5.73;1.03;;;21.60;99.90;;;;;;6162740;23;20158;-86
2023/09/19 07:58:40;;;;;;;4.03;0.83;;;22.00;99.90;;;;;;6184921;23;20166;-85
2023/09/19 08:01:08;;;;;;;0.87;0.70;;;20.80;99.90;;;;;;6232690;23;20202;-86
2023/09/19 08:03:40;;;;;;;3.83;1.00;;;19.80;99.90;;;;;;6208758;23;20197;-86
2023/09/19 08:06:07;;;;;;;2.47;1.13;;;19.80;99.90;;;;;;6212150;23;20264;-87
2023/09/19 08:08:39;;;;;;;1.53;0.90;;;19.50;99.90;;;;;;6212172;23;20206;-91
2023/09/19 08:11:12;;;;;;;2.87;0.97;;;19.90;99.90;;;;;;6188884;23;20484;-86
2023/09/19 08:13:43;;;;;;;1.40;0.90;;;21.20;99.90;;;;;;6237972;23;20237;-86
2023/09/19 08:16:14;;;;;;;3.95;1.40;;;21.80;99.90;;;;;;6237041;23;20204;-88
2023/09/19 08:18:41;;;;;;;2.58;1.10;;;20.90;99.90;;;;;;6212417;23;20193;-84
2023/09/19 08:21:11;;;;;;;1.43;0.67;;;20.90;99.90;;;;;;6187516;23;20635;-86
2023/09/19 08:23:40;;;;;;;4.13;0.90;;;20.70;99.90;;;;;;6211993;23;20624;-89
2023/09/19 08:26:07;;;;;;;1.10;0.83;;;20.30;99.90;;;;;;6187638;23;20165;-86
2023/09/19 08:28:40;;;;;;;2.03;1.20;;;20.80;99.90;;;;;;6213208;23;20264;-89
2023/09/19 08:31:10;;;;;;;7.43;1.50;;;21.00;99.90;;;;;;6188425;23;20200;-85
2023/09/19 08:33:37;;;;;;;4.97;1.83;;;20.80;99.90;;;;;;6188293;23;20661;-88
2023/09/19 08:36:04;;;;;;;5.67;1.60;;;20.10;99.90;;;;;;6188905;23;20238;-87
2023/09/19 08:38:33;;;;;;;6.13;1.43;;;19.70;99.90;;;;;;6239029;23;20194;-88
2023/09/19 08:41:00;;;;;;;2.07;1.10;;;19.50;99.90;;;;;;6189417;23;20385;-87
2023/09/19 08:43:26;;;;;;;6.07;1.47;;;19.20;99.90;;;;;;6214593;23;20233;-88
2023/09/19 08:46:14;;;;;;;6.90;1.90;;;19.20;99.90;;;;;;6164191;23;20272;-89
2023/09/19 08:49:03;;;;;;;2.90;1.30;;;19.90;99.90;;;;;;6189791;23;20221;-88
2023/09/19 08:51:45;;;;;;;3.73;1.47;;;20.20;99.90;;;;;;6214363;23;20258;-89
2023/09/19 08:54:26;;;;;;;0.67;0.67;;;21.10;99.90;;;;;;6213360;23;20217;-86
2023/09/19 08:56:54;;;;;;;4.47;0.93;;;21.80;99.90;;;;;;6238866;23;20281;-88
2023/09/19 08:59:24;;;;;;;3.33;1.43;;;21.40;99.90;;;;;;6209919;23;20213;-90
2023/09/19 09:01:53;;;;;;;2.07;1.03;;;21.00;99.90;;;;;;6186199;23;20262;-86
2023/09/19 09:04:20;;;;;;;3.13;1.40;;;20.40;99.90;;;;;;6190229;23;20282;-90
2023/09/19 09:06:49;;;;;;;2.13;1.00;;;20.00;99.90;;;;;;6189286;23;20201;-86
2023/09/19 09:09:15;;;;;;;2.00;1.00;;;19.90;99.90;;;;;;6213962;23;20542;-86
2023/09/19 09:11:41;;;;;;;3.17;1.43;;;19.70;99.90;;;;;;6188552;23;20186;-87
2023/09/19 09:14:07;;;;;;;2.47;1.23;;;19.90;99.90;;;;;;6164467;23;20166;-89
2023/09/19 09:16:34;;;;;;;3.33;1.13;;;19.90;99.90;;;;;;6165427;23;20333;-89
2023/09/19 09:19:01;;;;;;;1.77;0.67;;;20.10;99.90;;;;;;6215105;23;20189;-88
2023/09/19 09:21:28;;;;;;;2.27;1.00;;;20.40;99.90;;;;;;6213894;23;20246;-89
2023/09/19 09:23:54;;;;;;;6.03;0.97;;;20.50;99.90;;;;;;6213757;23;20222;-88
2023/09/19 09:26:42;;;;;;;2.73;1.50;;;20.90;99.90;;;;;;6189360;23;20190;-88
2023/09/19 09:29:08;;;;;;;0.67;0.63;;;21.10;99.90;;;;;;6189204;23;20264;-88
2023/09/19 09:31:34;;;;;;;3.07;0.97;;;21.40;99.90;;;;;;6189513;23;20193;-90
2023/09/19 09:34:00;;;;;;;7.53;1.47;;;21.10;99.90;;;;;;6188174;23;20647;-88
2023/09/19 09:36:37;;;;;;;6.53;1.17;;;20.60;99.90;;;;;;6213756;23;20301;-87
2023/09/19 09:39:15;;;;;;;1.73;1.07;;;20.20;99.90;;;;;;6188404;23;20208;-87
2023/09/19 09:41:43;;;;;;;6.73;1.57;;;19.90;99.90;;;;;;6190981;23;20199;-86
2023/09/19 09:44:19;;;;;;;4.00;1.10;;;20.00;99.90;;;;;;6214007;23;20158;-89
2023/09/19 09:49:36;;;;;;;4.37;1.57;;;19.90;99.90;;;;;;6214889;23;20232;-87
2023/09/19 09:52:07;;;;;;;1.80;0.83;;;19.80;99.90;;;;;;6167499;23;20194;-86
2023/09/19 09:54:38;;;;;;;5.60;1.23;;;19.90;99.90;;;;;;6213852;23;20193;-88
2023/09/19 09:57:14;;;;;;;2.30;1.10;;;20.40;99.90;;;;;;6214749;23;20779;-87
2023/09/19 09:59:53;;;;;;;7.17;1.03;;;20.50;99.90;;;;;;6209509;23;20560;-88
2023/09/19 10:02:28;;;;;;;3.60;1.43;;;20.20;99.90;;;;;;6209892;23;20190;-87
2023/09/19 10:05:13;;;;;;;2.20;0.90;;;20.10;99.90;;;;;;6216602;23;20177;-91
2023/09/19 10:07:40;;;;;;;2.27;1.70;;;20.00;99.90;;;;;;6197730;23;20170;-90
2023/09/19 10:10:15;;;;;;;2.40;0.77;;;19.80;99.90;;;;;;6214092;23;20228;-89
2023/09/19 10:12:47;;;;;;;1.53;1.30;;;20.10;99.90;;;;;;6214204;23;20190;-89
2023/09/19 10:15:20;;;;;;;3.93;1.47;;;20.70;99.90;;;;;;6189751;23;20206;-88
2023/09/19 10:17:47;;;;;;;4.67;1.33;;;20.80;99.90;;;;;;6214225;23;20182;-87
2023/09/19 10:20:33;;;;;;;6.13;1.47;;;20.90;99.90;;;;;;6213310;23;20160;-87
2023/09/19 10:23:09;;;;;;;3.20;0.83;;;20.50;99.90;;;;;;6213127;23;20208;-88
2023/09/19 10:25:40;;;;;;;8.60;0.93;;;20.80;99.90;;;;;;6213649;23;20168;-86
2023/09/19 10:28:10;;;;;;;9.50;1.90;;;20.90;99.90;;;;;;6212371;23;20206;-84
2023/09/19 10:30:51;;;;;;;5.67;0.90;;;20.90;99.90;;;;;;6188571;23;20576;-87
2023/09/19 10:33:21;;;;;;;3.22;1.20;;;20.90;99.90;;;;;;6187976;23;20224;-86
2023/09/19 10:35:51;;;;;;;2.50;1.33;;;21.10;99.90;;;;;;6212502;23;20194;-87
2023/09/19 10:38:23;;;;;;;11.13;0.97;;;21.00;99.90;;;;;;6214402;23;20194;-87
2023/09/19 10:40:51;;;;;;;5.10;1.17;;;20.90;99.90;;;;;;6213675;23;20510;-87
2023/09/19 10:43:18;;;;;;;4.05;1.00;;;20.50;99.90;;;;;;6212115;23;20202;-87
2023/09/19 10:45:49;;;;;;;6.23;1.70;;;19.90;99.90;;;;;;6183605;23;20240;-88
2023/09/19 10:48:19;;;;;;;3.60;1.43;;;19.60;99.90;;;;;;6206502;23;20568;-88
2023/09/19 10:51:06;;;;;;;3.37;0.80;;;19.30;99.90;;;;;;6181610;23;20198;-89
2023/09/19 10:54:00;;;;;;;5.93;1.40;;;19.40;99.90;;;;;;6208100;23;20197;-89
2023/09/19 10:56:32;;;;;;;1.77;1.67;;;19.60;99.90;;;;;;6207796;23;20252;-88
2023/09/19 10:59:08;;;;;;;4.97;1.00;;;19.50;99.90;;;;;;6207853;23;20178;-90
2023/09/19 11:01:50;;;;;;;1.67;1.00;;;19.20;99.90;;;;;;6233968;23;20157;-91
2023/09/19 11:04:52;;;;;;;3.23;1.37;;;18.70;99.90;;;;;;6184452;23;20197;-87
2023/09/19 11:07:17;;;;;;;6.83;1.43;;;18.30;99.90;;;;;;6195204;23;20996;-87
2023/09/19 11:09:46;;;;;;;1.43;0.90;;;18.40;99.90;;;;;;6232537;23;20216;-89
2023/09/19 11:12:30;;;;;;;1.83;1.63;;;18.60;99.90;;;;;;6232203;23;20201;-88
2023/09/19 11:15:10;;;;;;;5.23;1.40;;;18.90;99.90;;;;;;6232895;23;20671;-88
2023/09/19 11:17:46;;;;;;;6.40;2.37;;;18.90;99.90;;;;;;6185529;23;20198;-87
2023/09/19 11:22:50;;;;;;;4.63;1.60;;;18.40;99.90;;;;;;6209467;23;20603;-89
2023/09/19 11:25:38;;;;;;;2.90;1.10;;;18.40;99.90;;;;;;6233351;23;20232;-88
2023/09/19 11:28:17;;;;;;;3.30;2.20;;;18.20;99.90;;;;;;6232509;23;20209;-88
2023/09/19 11:30:45;;;;;;;7.37;2.73;;;18.00;99.90;;;;;;6232082;23;20201;-88
2023/09/19 11:33:46;;;;;;;7.93;2.03;;;17.90;99.90;;;;;;6206730;23;20666;-89
2023/09/19 11:36:19;;;;;;;4.30;1.57;;;17.80;99.90;;;;;;6186227;23;20236;-88
2023/09/19 11:38:45;;;;;;;8.70;2.37;;;17.80;99.90;;;;;;6207297;23;20202;-90
2023/09/19 11:41:26;;;;;;;10.67;1.73;;;17.90;99.90;;;;;;6233823;23;20169;-89
2023/09/19 11:44:04;;;;;;;4.57;1.53;;;17.80;99.90;;;;;;6233606;23;20154;-88
2023/09/19 11:46:31;;;;;;;1.53;1.37;;;17.80;99.90;;;;;;6233592;23;20188;-90
2023/09/19 11:49:15;;;;;;;2.67;1.30;;;17.60;99.90;;;;;;6208137;23;20210;-89
2023/09/19 11:51:45;;;;;;;1.43;1.33;;;17.40;99.90;;;;;;6207829;23;20202;-90
2023/09/19 11:54:21;;;;;;;3.67;1.67;;;17.20;99.90;;;;;;6184368;23;20197;-90
2023/09/19 11:56:50;;;;;;;8.00;2.40;;;17.00;99.90;;;;;;6162371;23;20181;-89
2023/09/19 11:59:28;;;;;;;1.33;1.23;;;16.90;99.90;;;;;;6233701;23;20190;-90
2023/09/19 12:02:02;;;;;;;7.80;2.00;;;16.90;99.90;;;;;;6209011;23;20157;-89
2023/09/19 12:04:43;;;;;;;4.77;1.67;;;16.90;99.90;;;;;;6208069;23;20185;-90
2023/09/19 12:07:16;;;;;;;6.90;1.77;;;16.90;99.90;;;;;;6182956;23;20292;-91
2023/09/19 12:09:50;;;;;;;4.53;1.43;;;17.00;99.90;;;;;;6210305;23;20212;-89
2023/09/19 12:12:27;;;;;;;3.47;1.10;;;17.10;99.90;;;;;;6210561;23;20560;-90
2023/09/19 12:14:54;;;;;;;1.23;1.17;;;17.30;99.90;;;;;;6206533;23;20197;-89
2023/09/19 12:17:24;;;;;;;10.43;2.03;;;17.30;99.90;;;;;;6210911;23;20232;-91
2023/09/19 12:19:53;;;;;;;1.60;1.43;;;17.60;99.90;;;;;;6186192;23;20265;-91
2023/09/19 12:22:22;;;;;;;2.30;1.07;;;17.70;99.90;;;;;;6209744;23;20201;-90
2023/09/19 12:24:50;;;;;;;1.27;1.17;;;17.60;99.90;;;;;;6210852;23;20224;-91
2023/09/19 12:27:16;;;;;;;1.63;1.20;;;17.70;99.90;;;;;;6184992;23;20202;-90
2023/09/19 12:29:48;;;;;;;6.77;1.53;;;17.90;99.90;;;;;;6161624;23;20305;-90
2023/09/19 12:32:17;;;;;;;5.53;1.57;;;18.20;99.90;;;;;;6209992;23;20158;-89
2023/09/19 12:34:51;;;;;;;1.20;1.10;;;18.30;99.90;;;;;;6189344;23;20166;-86
2023/09/19 12:37:22;;;;;;;6.50;1.43;;;18.20;99.90;;;;;;6214170;23;20305;-88
2023/09/19 12:39:51;;;;;;;5.77;1.20;;;18.10;99.90;;;;;;6166625;23;20639;-87
2023/09/19 12:42:28;;;;;;;1.27;1.10;;;18.00;99.90;;;;;;6214320;23;20658;-88
2023/09/19 12:44:57;;;;;;;2.60;1.10;;;18.00;99.90;;;;;;6190395;23;20934;-87
2023/09/19 12:47:24;;;;;;;1.20;1.10;;;18.10;99.90;;;;;;6189662;23;20280;-87
2023/09/19 12:50:16;;;;;;;4.43;1.13;;;17.90;99.90;;;;;;6189310;23;20285;-87
2023/09/19 12:52:50;;;;;;;6.47;1.60;;;17.80;99.90;;;;;;6239411;23;20189;-87
2023/09/19 12:55:26;;;;;;;3.80;1.77;;;17.70;99.90;;;;;;6214651;23;20245;-86
2023/09/19 12:58:16;;;;;;;5.57;2.20;;;17.40;99.90;;;;;;6211811;23;20705;-87
2023/09/19 13:00:47;;;;;;;1.40;1.30;;;17.30;99.90;;;;;;6198052;23;20197;-86
2023/09/19 13:03:25;;;;;;;4.77;1.43;;;17.20;99.90;;;;;;6211415;23;20205;-87
2023/09/19 13:05:57;;;;;;;1.57;1.10;;;17.10;99.90;;;;;;6239366;23;20611;-88
2023/09/19 13:08:38;;;;;;;4.73;1.40;;;17.30;99.90;;;;;;6213515;23;20209;-87